sensor_id;sensor_type;location;lat;lon;timestamp;temperature;humidity
26990;DHT22;14537;47.788;11.858;2023-06-04T00:01:02;12.90;99.90
26990;DHT22;14537;47.788;11.858;2023-06-04T00:03:28;13.00;99.90
26990;DHT22;14537;47.788;11.858;2023-06-04T00:05:54;12.90;99.90
26990;DHT22;14537;47.788;11.858;2023-06-04T00:08:19;12.80;99.90
26990;DHT22;14537;47.788;11.858;2023-06-04T00:10:45;12.80;99.90
26990;DHT22;14537;47.788;11.858;2023-06-04T00:13:10;12.70;99.90
26990;DHT22;14537;47.788;11.858;2023-06-04T00:15:36;12.70;99.90
26990;DHT22;14537;47.788;11.858;2023-06-04T00:18:02;12.70;99.90
26990;DHT22;14537;47.788;11.858;2023-06-04T00:20:27;12.60;99.90
26990;DHT22;14537;47.788;11.858;2023-06-04T00:22:53;12.60;99.90
26990;DHT22;14537;47.788;11.858;2023-06-04T00:25:19;12.60;99.90
26990;DHT22;14537;47.788;11.858;2023-06-04T00:27:44;12.70;99.90
26990;DHT22;14537;47.788;11.858;2023-06-04T00:30:10;12.70;99.90
26990;DHT22;14537;47.788;11.858;2023-06-04T00:32:36;12.70;99.90
26990;DHT22;14537;47.788;11.858;2023-06-04T00:35:02;12.80;99.90
26990;DHT22;14537;47.788;11.858;2023-06-04T00:37:28;12.80;99.90
26990;DHT22;14537;47.788;11.858;2023-06-04T00:39:55;12.90;99.90
26990;DHT22;14537;47.788;11.858;2023-06-04T00:42:20;12.90;99.90
26990;DHT22;14537;47.788;11.858;2023-06-04T00:44:46;12.90;99.90
26990;DHT22;14537;47.788;11.858;2023-06-04T00:47:16;12.90;99.90
26990;DHT22;14537;47.788;11.858;2023-06-04T00:49:43;12.90;99.90
26990;DHT22;14537;47.788;11.858;2023-06-04T00:52:09;12.90;99.90
26990;DHT22;14537;47.788;11.858;2023-06-04T00:54:36;12.80;99.90
26990;DHT22;14537;47.788;11.858;2023-06-04T00:57:04;12.80;99.90
26990;DHT22;14537;47.788;11.858;2023-06-04T00:59:32;12.90;99.90
26990;DHT22;14537;47.788;11.858;2023-06-04T01:02:08;12.90;99.90
26990;DHT22;14537;47.788;11.858;2023-06-04T01:04:50;12.80;99.90
26990;DHT22;14537;47.788;11.858;2023-06-04T01:07:18;12.80;99.90
26990;DHT22;14537;47.788;11.858;2023-06-04T01:09:45;12.80;99.90
26990;DHT22;14537;47.788;11.858;2023-06-04T01:12:11;12.80;99.90
26990;DHT22;14537;47.788;11.858;2023-06-04T01:14:37;12.80;99.90
26990;DHT22;14537;47.788;11.858;2023-06-04T01:17:11;12.80;99.90
26990;DHT22;14537;47.788;11.858;2023-06-04T01:20:02;12.80;99.90
26990;DHT22;14537;47.788;11.858;2023-06-04T01:25:33;12.50;99.90
26990;DHT22;14537;47.788;11.858;2023-06-04T01:28:00;12.50;99.90
26990;DHT22;14537;47.788;11.858;2023-06-04T01:30:30;12.50;99.90
26990;DHT22;14537;47.788;11.858;2023-06-04T01:32:58;12.50;99.90
26990;DHT22;14537;47.788;11.858;2023-06-04T01:35:24;12.50;99.90
26990;DHT22;14537;47.788;11.858;2023-06-04T01:37:50;12.50;99.90
26990;DHT22;14537;47.788;11.858;2023-06-04T01:40:17;12.40;99.90
26990;DHT22;14537;47.788;11.858;2023-06-04T01:42:42;12.40;99.90
26990;DHT22;14537;47.788;11.858;2023-06-04T01:45:09;12.40;99.90
26990;DHT22;14537;47.788;11.858;2023-06-04T01:47:35;12.30;99.90
26990;DHT22;14537;47.788;11.858;2023-06-04T01:50:02;12.30;99.90
26990;DHT22;14537;47.788;11.858;2023-06-04T01:52:27;12.40;99.90
26990;DHT22;14537;47.788;11.858;2023-06-04T01:54:53;12.40;99.90
26990;DHT22;14537;47.788;11.858;2023-06-04T01:57:20;12.40;99.90
26990;DHT22;14537;47.788;11.858;2023-06-04T01:59:46;12.30;99.90
26990;DHT22;14537;47.788;11.858;2023-06-04T02:02:12;12.30;99.90
26990;DHT22;14537;47.788;11.858;2023-06-04T02:04:38;12.20;99.90
26990;DHT22;14537;47.788;11.858;2023-06-04T02:07:10;12.20;99.90
26990;DHT22;14537;47.788;11.858;2023-06-04T02:09:36;12.30;99.90
26990;DHT22;14537;47.788;11.858;2023-06-04T02:12:03;12.20;99.90
26990;DHT22;14537;47.788;11.858;2023-06-04T02:14:28;12.20;99.90
26990;DHT22;14537;47.788;11.858;2023-06-04T02:16:54;12.20;99.90
26990;DHT22;14537;47.788;11.858;2023-06-04T02:19:23;12.20;99.90
26990;DHT22;14537;47.788;11.858;2023-06-04T02:21:51;12.10;99.90
26990;DHT22;14537;47.788;11.858;2023-06-04T02:24:17;12.10;99.90
26990;DHT22;14537;47.788;11.858;2023-06-04T02:26:43;12.10;99.90
26990;DHT22;14537;47.788;11.858;2023-06-04T02:29:08;12.10;99.90
26990;DHT22;14537;47.788;11.858;2023-06-04T02:31:34;12.00;99.90
26990;DHT22;14537;47.788;11.858;2023-06-04T02:34:00;11.80;99.90
26990;DHT22;14537;47.788;11.858;2023-06-04T02:36:25;11.80;99.90
26990;DHT22;14537;47.788;11.858;2023-06-04T02:38:51;11.70;99.90
26990;DHT22;14537;47.788;11.858;2023-06-04T02:41:16;11.70;99.90
26990;DHT22;14537;47.788;11.858;2023-06-04T02:43:42;11.70;99.90
26990;DHT22;14537;47.788;11.858;2023-06-04T02:46:08;11.60;99.90
26990;DHT22;14537;47.788;11.858;2023-06-04T02:48:33;11.60;99.90
26990;DHT22;14537;47.788;11.858;2023-06-04T02:50:59;11.60;99.90
26990;DHT22;14537;47.788;11.858;2023-06-04T02:53:25;11.50;99.90
26990;DHT22;14537;47.788;11.858;2023-06-04T02:55:50;11.40;99.90
26990;DHT22;14537;47.788;11.858;2023-06-04T02:58:17;11.30;99.90
26990;DHT22;14537;47.788;11.858;2023-06-04T03:00:42;11.20;99.90
26990;DHT22;14537;47.788;11.858;2023-06-04T03:03:08;11.20;99.90
26990;DHT22;14537;47.788;11.858;2023-06-04T03:05:34;11.20;99.90
26990;DHT22;14537;47.788;11.858;2023-06-04T03:08:01;11.10;99.90
26990;DHT22;14537;47.788;11.858;2023-06-04T03:10:27;11.10;99.90
26990;DHT22;14537;47.788;11.858;2023-06-04T03:12:53;11.10;99.90
26990;DHT22;14537;47.788;11.858;2023-06-04T03:15:19;11.00;99.90
26990;DHT22;14537;47.788;11.858;2023-06-04T03:17:44;10.90;99.90
26990;DHT22;14537;47.788;11.858;2023-06-04T03:20:10;11.00;99.90
26990;DHT22;14537;47.788;11.858;2023-06-04T03:22:36;11.00;99.90
26990;DHT22;14537;47.788;11.858;2023-06-04T03:25:02;11.00;99.90
26990;DHT22;14537;47.788;11.858;2023-06-04T03:27:30;10.80;99.90
26990;DHT22;14537;47.788;11.858;2023-06-04T03:29:56;10.80;99.90
26990;DHT22;14537;47.788;11.858;2023-06-04T03:32:21;10.70;99.90
26990;DHT22;14537;47.788;11.858;2023-06-04T03:34:47;10.70;99.90
26990;DHT22;14537;47.788;11.858;2023-06-04T03:37:12;10.70;99.90
26990;DHT22;14537;47.788;11.858;2023-06-04T03:39:38;10.70;99.90
26990;DHT22;14537;47.788;11.858;2023-06-04T03:42:04;10.70;99.90
26990;DHT22;14537;47.788;11.858;2023-06-04T03:44:30;10.70;99.90
26990;DHT22;14537;47.788;11.858;2023-06-04T03:46:56;10.70;99.90
26990;DHT22;14537;47.788;11.858;2023-06-04T03:49:22;10.80;99.90
26990;DHT22;14537;47.788;11.858;2023-06-04T03:51:47;10.80;99.90
26990;DHT22;14537;47.788;11.858;2023-06-04T03:54:14;10.90;99.90
26990;DHT22;14537;47.788;11.858;2023-06-04T03:56:43;10.90;99.90
26990;DHT22;14537;47.788;11.858;2023-06-04T03:59:09;10.90;99.90
26990;DHT22;14537;47.788;11.858;2023-06-04T04:01:35;10.90;99.90
26990;DHT22;14537;47.788;11.858;2023-06-04T04:04:00;10.90;99.90
26990;DHT22;14537;47.788;11.858;2023-06-04T04:06:26;10.90;99.90
26990;DHT22;14537;47.788;11.858;2023-06-04T04:08:52;10.90;99.90
26990;DHT22;14537;47.788;11.858;2023-06-04T04:11:18;10.90;99.90
26990;DHT22;14537;47.788;11.858;2023-06-04T04:13:47;10.80;99.90
26990;DHT22;14537;47.788;11.858;2023-06-04T04:16:13;10.80;99.90
26990;DHT22;14537;47.788;11.858;2023-06-04T04:18:40;10.80;99.90
26990;DHT22;14537;47.788;11.858;2023-06-04T04:21:06;10.80;99.90
26990;DHT22;14537;47.788;11.858;2023-06-04T04:23:31;10.90;99.90
26990;DHT22;14537;47.788;11.858;2023-06-04T04:26:00;10.80;99.90
26990;DHT22;14537;47.788;11.858;2023-06-04T04:28:27;10.90;99.90
26990;DHT22;14537;47.788;11.858;2023-06-04T04:30:56;10.90;99.90
26990;DHT22;14537;47.788;11.858;2023-06-04T04:33:23;10.90;99.90
26990;DHT22;14537;47.788;11.858;2023-06-04T04:35:50;11.00;99.90
26990;DHT22;14537;47.788;11.858;2023-06-04T04:38:18;11.00;99.90
26990;DHT22;14537;47.788;11.858;2023-06-04T04:40:44;11.00;99.90
26990;DHT22;14537;47.788;11.858;2023-06-04T04:43:13;11.10;99.90
26990;DHT22;14537;47.788;11.858;2023-06-04T04:45:39;11.20;99.90
26990;DHT22;14537;47.788;11.858;2023-06-04T04:48:04;11.20;99.90
26990;DHT22;14537;47.788;11.858;2023-06-04T04:50:30;11.20;99.90
26990;DHT22;14537;47.788;11.858;2023-06-04T04:52:57;11.30;99.90
26990;DHT22;14537;47.788;11.858;2023-06-04T04:55:23;11.30;99.90
26990;DHT22;14537;47.788;11.858;2023-06-04T04:57:49;11.40;99.90
26990;DHT22;14537;47.788;11.858;2023-06-04T05:00:15;11.50;99.90
26990;DHT22;14537;47.788;11.858;2023-06-04T05:02:41;11.50;99.90
26990;DHT22;14537;47.788;11.858;2023-06-04T05:05:06;11.60;99.90
26990;DHT22;14537;47.788;11.858;2023-06-04T05:07:32;11.60;99.90
26990;DHT22;14537;47.788;11.858;2023-06-04T05:09:58;11.70;99.90
26990;DHT22;14537;47.788;11.858;2023-06-04T05:12:25;11.80;99.90
26990;DHT22;14537;47.788;11.858;2023-06-04T05:14:52;11.90;99.90
26990;DHT22;14537;47.788;11.858;2023-06-04T05:17:17;12.00;99.90
26990;DHT22;14537;47.788;11.858;2023-06-04T05:19:47;12.20;99.90
26990;DHT22;14537;47.788;11.858;2023-06-04T05:22:12;12.30;99.90
26990;DHT22;14537;47.788;11.858;2023-06-04T05:24:41;12.50;99.90
26990;DHT22;14537;47.788;11.858;2023-06-04T05:27:06;12.60;99.90
26990;DHT22;14537;47.788;11.858;2023-06-04T05:29:34;12.80;99.90
26990;DHT22;14537;47.788;11.858;2023-06-04T05:32:00;13.00;99.90
26990;DHT22;14537;47.788;11.858;2023-06-04T05:34:26;13.20;99.90
26990;DHT22;14537;47.788;11.858;2023-06-04T05:36:52;13.30;99.90
26990;DHT22;14537;47.788;11.858;2023-06-04T05:39:18;13.40;99.90
26990;DHT22;14537;47.788;11.858;2023-06-04T05:41:44;13.40;99.90
26990;DHT22;14537;47.788;11.858;2023-06-04T05:44:10;13.40;99.90
26990;DHT22;14537;47.788;11.858;2023-06-04T05:46:36;13.40;99.90
26990;DHT22;14537;47.788;11.858;2023-06-04T05:49:02;13.50;99.90
26990;DHT22;14537;47.788;11.858;2023-06-04T05:51:27;13.50;99.90
26990;DHT22;14537;47.788;11.858;2023-06-04T05:53:54;13.60;99.90
26990;DHT22;14537;47.788;11.858;2023-06-04T05:56:20;13.70;99.90
26990;DHT22;14537;47.788;11.858;2023-06-04T05:58:51;13.70;99.90
26990;DHT22;14537;47.788;11.858;2023-06-04T06:01:17;13.80;99.90
26990;DHT22;14537;47.788;11.858;2023-06-04T06:03:43;13.80;99.90
26990;DHT22;14537;47.788;11.858;2023-06-04T06:06:08;13.90;99.90
26990;DHT22;14537;47.788;11.858;2023-06-04T06:08:35;13.90;99.90
26990;DHT22;14537;47.788;11.858;2023-06-04T06:11:01;14.00;99.90
26990;DHT22;14537;47.788;11.858;2023-06-04T06:13:29;13.90;99.90
26990;DHT22;14537;47.788;11.858;2023-06-04T06:15:55;14.00;99.90
26990;DHT22;14537;47.788;11.858;2023-06-04T06:18:21;14.00;99.90
26990;DHT22;14537;47.788;11.858;2023-06-04T06:20:46;14.00;99.90
26990;DHT22;14537;47.788;11.858;2023-06-04T06:23:12;14.00;99.90
26990;DHT22;14537;47.788;11.858;2023-06-04T06:25:38;14.10;99.90
26990;DHT22;14537;47.788;11.858;2023-06-04T06:28:06;14.20;99.90
26990;DHT22;14537;47.788;11.858;2023-06-04T06:30:32;14.20;99.90
26990;DHT22;14537;47.788;11.858;2023-06-04T06:32:57;14.30;99.90
26990;DHT22;14537;47.788;11.858;2023-06-04T06:35:23;14.30;99.90
26990;DHT22;14537;47.788;11.858;2023-06-04T06:37:49;14.40;99.90
26990;DHT22;14537;47.788;11.858;2023-06-04T06:40:14;14.40;99.90
26990;DHT22;14537;47.788;11.858;2023-06-04T06:42:40;14.50;99.90
26990;DHT22;14537;47.788;11.858;2023-06-04T06:45:06;14.60;99.90
26990;DHT22;14537;47.788;11.858;2023-06-04T06:47:31;14.60;99.90
26990;DHT22;14537;47.788;11.858;2023-06-04T06:49:57;14.70;99.90
26990;DHT22;14537;47.788;11.858;2023-06-04T06:52:23;14.80;99.90
26990;DHT22;14537;47.788;11.858;2023-06-04T06:54:48;14.80;99.90
26990;DHT22;14537;47.788;11.858;2023-06-04T06:57:14;14.80;99.90
26990;DHT22;14537;47.788;11.858;2023-06-04T06:59:40;14.80;99.90
26990;DHT22;14537;47.788;11.858;2023-06-04T07:02:06;14.80;99.90
26990;DHT22;14537;47.788;11.858;2023-06-04T07:04:32;14.90;99.90
26990;DHT22;14537;47.788;11.858;2023-06-04T07:06:58;14.90;99.90
26990;DHT22;14537;47.788;11.858;2023-06-04T07:09:23;15.00;99.90
26990;DHT22;14537;47.788;11.858;2023-06-04T07:11:49;15.10;99.90
26990;DHT22;14537;47.788;11.858;2023-06-04T07:14:15;15.30;99.90
26990;DHT22;14537;47.788;11.858;2023-06-04T07:16:41;15.30;99.90
26990;DHT22;14537;47.788;11.858;2023-06-04T07:19:07;15.40;99.90
26990;DHT22;14537;47.788;11.858;2023-06-04T07:21:32;15.40;99.90
26990;DHT22;14537;47.788;11.858;2023-06-04T07:23:58;15.50;99.90
26990;DHT22;14537;47.788;11.858;2023-06-04T07:26:23;15.50;99.90
26990;DHT22;14537;47.788;11.858;2023-06-04T07:28:50;15.60;99.90
26990;DHT22;14537;47.788;11.858;2023-06-04T07:31:16;15.60;99.90
26990;DHT22;14537;47.788;11.858;2023-06-04T07:33:42;15.70;99.90
26990;DHT22;14537;47.788;11.858;2023-06-04T07:36:15;15.70;99.90
26990;DHT22;14537;47.788;11.858;2023-06-04T07:38:42;15.70;99.90
26990;DHT22;14537;47.788;11.858;2023-06-04T07:41:07;15.70;99.90
26990;DHT22;14537;47.788;11.858;2023-06-04T07:43:34;15.80;99.90
26990;DHT22;14537;47.788;11.858;2023-06-04T07:46:03;15.80;99.90
26990;DHT22;14537;47.788;11.858;2023-06-04T07:48:29;15.80;99.90
26990;DHT22;14537;47.788;11.858;2023-06-04T07:50:58;15.80;99.90
26990;DHT22;14537;47.788;11.858;2023-06-04T07:53:24;15.80;99.90
26990;DHT22;14537;47.788;11.858;2023-06-04T07:55:50;15.90;99.90
26990;DHT22;14537;47.788;11.858;2023-06-04T07:58:16;16.00;99.90
26990;DHT22;14537;47.788;11.858;2023-06-04T08:00:41;16.10;99.90
26990;DHT22;14537;47.788;11.858;2023-06-04T08:03:07;16.10;99.90
26990;DHT22;14537;47.788;11.858;2023-06-04T08:05:33;16.10;99.90
26990;DHT22;14537;47.788;11.858;2023-06-04T08:07:59;16.10;99.90
26990;DHT22;14537;47.788;11.858;2023-06-04T08:10:25;16.20;99.90
26990;DHT22;14537;47.788;11.858;2023-06-04T08:12:51;16.20;99.90
26990;DHT22;14537;47.788;11.858;2023-06-04T08:15:16;16.30;99.90
26990;DHT22;14537;47.788;11.858;2023-06-04T08:17:42;16.20;99.90
26990;DHT22;14537;47.788;11.858;2023-06-04T08:20:08;16.30;99.90
26990;DHT22;14537;47.788;11.858;2023-06-04T08:22:36;16.30;99.90
26990;DHT22;14537;47.788;11.858;2023-06-04T08:25:02;16.40;99.90
26990;DHT22;14537;47.788;11.858;2023-06-04T08:27:30;16.40;99.90
26990;DHT22;14537;47.788;11.858;2023-06-04T08:29:56;16.50;99.90
26990;DHT22;14537;47.788;11.858;2023-06-04T08:32:23;16.50;99.90
26990;DHT22;14537;47.788;11.858;2023-06-04T08:34:48;16.60;99.90
26990;DHT22;14537;47.788;11.858;2023-06-04T08:37:14;16.60;99.90
26990;DHT22;14537;47.788;11.858;2023-06-04T08:39:40;16.70;99.90
26990;DHT22;14537;47.788;11.858;2023-06-04T08:42:07;16.70;99.90
26990;DHT22;14537;47.788;11.858;2023-06-04T08:44:35;16.70;99.90
26990;DHT22;14537;47.788;11.858;2023-06-04T08:47:05;16.80;99.90
26990;DHT22;14537;47.788;11.858;2023-06-04T08:49:34;16.90;99.90
26990;DHT22;14537;47.788;11.858;2023-06-04T08:52:02;17.00;99.90
26990;DHT22;14537;47.788;11.858;2023-06-04T08:54:28;17.00;99.90
26990;DHT22;14537;47.788;11.858;2023-06-04T08:56:56;17.10;99.90
26990;DHT22;14537;47.788;11.858;2023-06-04T08:59:23;17.00;99.90
26990;DHT22;14537;47.788;11.858;2023-06-04T09:01:53;17.00;99.90
26990;DHT22;14537;47.788;11.858;2023-06-04T09:04:19;17.00;99.90
26990;DHT22;14537;47.788;11.858;2023-06-04T09:06:44;17.10;99.90
26990;DHT22;14537;47.788;11.858;2023-06-04T09:09:12;17.10;99.90
26990;DHT22;14537;47.788;11.858;2023-06-04T09:11:52;17.10;99.90
26990;DHT22;14537;47.788;11.858;2023-06-04T09:14:18;17.20;99.90
26990;DHT22;14537;47.788;11.858;2023-06-04T09:16:45;17.20;99.90
26990;DHT22;14537;47.788;11.858;2023-06-04T09:19:11;17.20;99.90
26990;DHT22;14537;47.788;11.858;2023-06-04T09:21:51;17.20;99.90
26990;DHT22;14537;47.788;11.858;2023-06-04T09:24:18;17.40;99.90
26990;DHT22;14537;47.788;11.858;2023-06-04T09:26:44;17.40;99.90
26990;DHT22;14537;47.788;11.858;2023-06-04T09:29:10;17.40;99.90
26990;DHT22;14537;47.788;11.858;2023-06-04T09:31:36;17.40;99.90
26990;DHT22;14537;47.788;11.858;2023-06-04T09:34:03;17.50;99.90
26990;DHT22;14537;47.788;11.858;2023-06-04T09:36:36;17.60;99.90
26990;DHT22;14537;47.788;11.858;2023-06-04T09:39:03;17.70;99.90
26990;DHT22;14537;47.788;11.858;2023-06-04T09:41:30;17.80;99.90
26990;DHT22;14537;47.788;11.858;2023-06-04T09:44:03;17.80;99.90
26990;DHT22;14537;47.788;11.858;2023-06-04T09:46:29;17.90;99.90
26990;DHT22;14537;47.788;11.858;2023-06-04T09:49:03;18.00;99.90
26990;DHT22;14537;47.788;11.858;2023-06-04T09:51:29;17.90;99.90
26990;DHT22;14537;47.788;11.858;2023-06-04T09:54:00;18.10;99.90
26990;DHT22;14537;47.788;11.858;2023-06-04T09:56:27;18.30;99.90
26990;DHT22;14537;47.788;11.858;2023-06-04T09:58:58;18.40;99.90
26990;DHT22;14537;47.788;11.858;2023-06-04T10:01:26;18.60;99.90
26990;DHT22;14537;47.788;11.858;2023-06-04T10:03:54;18.60;99.90
26990;DHT22;14537;47.788;11.858;2023-06-04T10:06:20;18.60;99.90
26990;DHT22;14537;47.788;11.858;2023-06-04T10:08:48;18.60;99.90
26990;DHT22;14537;47.788;11.858;2023-06-04T10:11:19;18.50;99.90
26990;DHT22;14537;47.788;11.858;2023-06-04T10:13:57;18.60;99.90
26990;DHT22;14537;47.788;11.858;2023-06-04T10:16:26;18.70;99.90
26990;DHT22;14537;47.788;11.858;2023-06-04T10:18:55;18.80;99.90
26990;DHT22;14537;47.788;11.858;2023-06-04T10:21:21;19.00;99.90
26990;DHT22;14537;47.788;11.858;2023-06-04T10:23:48;19.10;99.90
26990;DHT22;14537;47.788;11.858;2023-06-04T10:26:15;19.20;99.90
26990;DHT22;14537;47.788;11.858;2023-06-04T10:28:41;19.10;99.90
26990;DHT22;14537;47.788;11.858;2023-06-04T10:31:09;19.20;99.90
26990;DHT22;14537;47.788;11.858;2023-06-04T10:33:35;19.40;99.90
26990;DHT22;14537;47.788;11.858;2023-06-04T10:36:19;19.70;99.90
26990;DHT22;14537;47.788;11.858;2023-06-04T10:38:49;19.90;99.90
26990;DHT22;14537;47.788;11.858;2023-06-04T10:41:17;19.90;99.90
26990;DHT22;14537;47.788;11.858;2023-06-04T10:43:47;19.70;99.20
26990;DHT22;14537;47.788;11.858;2023-06-04T10:46:16;19.90;99.90
26990;DHT22;14537;47.788;11.858;2023-06-04T10:48:54;20.20;99.90
26990;DHT22;14537;47.788;11.858;2023-06-04T10:51:31;20.40;98.20
26990;DHT22;14537;47.788;11.858;2023-06-04T10:54:01;20.30;98.70
26990;DHT22;14537;47.788;11.858;2023-06-04T10:56:33;20.30;98.50
26990;DHT22;14537;47.788;11.858;2023-06-04T10:59:00;20.30;96.90
26990;DHT22;14537;47.788;11.858;2023-06-04T11:01:26;20.30;96.80
26990;DHT22;14537;47.788;11.858;2023-06-04T11:03:52;20.30;96.40
26990;DHT22;14537;47.788;11.858;2023-06-04T11:06:18;20.30;96.90
26990;DHT22;14537;47.788;11.858;2023-06-04T11:08:44;20.50;96.10
26990;DHT22;14537;47.788;11.858;2023-06-04T11:11:16;20.50;95.00
26990;DHT22;14537;47.788;11.858;2023-06-04T11:13:43;20.70;96.10
26990;DHT22;14537;47.788;11.858;2023-06-04T11:16:19;20.90;97.00
26990;DHT22;14537;47.788;11.858;2023-06-04T11:18:57;21.10;96.00
26990;DHT22;14537;47.788;11.858;2023-06-04T11:21:24;21.10;94.50
26990;DHT22;14537;47.788;11.858;2023-06-04T11:23:55;21.10;92.70
26990;DHT22;14537;47.788;11.858;2023-06-04T11:26:21;21.30;93.80
26990;DHT22;14537;47.788;11.858;2023-06-04T11:28:50;21.50;94.00
26990;DHT22;14537;47.788;11.858;2023-06-04T11:31:15;21.60;92.50
26990;DHT22;14537;47.788;11.858;2023-06-04T11:33:44;21.70;93.20
26990;DHT22;14537;47.788;11.858;2023-06-04T11:36:22;21.80;92.80
26990;DHT22;14537;47.788;11.858;2023-06-04T11:38:58;21.80;91.50
26990;DHT22;14537;47.788;11.858;2023-06-04T11:41:27;21.70;88.70
26990;DHT22;14537;47.788;11.858;2023-06-04T11:43:53;21.50;90.60
26990;DHT22;14537;47.788;11.858;2023-06-04T11:46:20;21.60;91.30
26990;DHT22;14537;47.788;11.858;2023-06-04T11:48:46;21.70;90.70
26990;DHT22;14537;47.788;11.858;2023-06-04T11:51:12;21.70;89.00
26990;DHT22;14537;47.788;11.858;2023-06-04T11:53:38;21.50;87.60
26990;DHT22;14537;47.788;11.858;2023-06-04T11:56:05;21.40;90.60
26990;DHT22;14537;47.788;11.858;2023-06-04T11:58:31;21.40;88.80
26990;DHT22;14537;47.788;11.858;2023-06-04T12:00:57;21.30;90.60
26990;DHT22;14537;47.788;11.858;2023-06-04T12:03:40;21.50;87.40
26990;DHT22;14537;47.788;11.858;2023-06-04T12:06:19;21.40;88.70
26990;DHT22;14537;47.788;11.858;2023-06-04T12:08:53;21.50;88.90
26990;DHT22;14537;47.788;11.858;2023-06-04T12:11:33;21.70;91.50
26990;DHT22;14537;47.788;11.858;2023-06-04T12:14:03;22.00;87.90
26990;DHT22;14537;47.788;11.858;2023-06-04T12:16:29;22.30;90.50
26990;DHT22;14537;47.788;11.858;2023-06-04T12:19:09;22.70;91.50
26990;DHT22;14537;47.788;11.858;2023-06-04T12:21:36;22.90;84.30
26990;DHT22;14537;47.788;11.858;2023-06-04T12:24:07;23.10;89.10
26990;DHT22;14537;47.788;11.858;2023-06-04T12:26:33;23.40;89.80
26990;DHT22;14537;47.788;11.858;2023-06-04T12:29:08;23.60;87.80
26990;DHT22;14537;47.788;11.858;2023-06-04T12:31:36;23.80;84.10
26990;DHT22;14537;47.788;11.858;2023-06-04T12:34:01;23.70;84.00
26990;DHT22;14537;47.788;11.858;2023-06-04T12:36:27;23.80;85.60
26990;DHT22;14537;47.788;11.858;2023-06-04T12:38:58;23.90;89.00
26990;DHT22;14537;47.788;11.858;2023-06-04T12:41:24;23.80;86.10
26990;DHT22;14537;47.788;11.858;2023-06-04T12:43:50;23.80;88.30
26990;DHT22;14537;47.788;11.858;2023-06-04T12:46:16;23.70;84.00
26990;DHT22;14537;47.788;11.858;2023-06-04T12:48:42;23.50;81.50
26990;DHT22;14537;47.788;11.858;2023-06-04T12:51:09;23.50;83.30
26990;DHT22;14537;47.788;11.858;2023-06-04T12:53:39;23.40;81.50
26990;DHT22;14537;47.788;11.858;2023-06-04T12:56:05;23.50;80.70
26990;DHT22;14537;47.788;11.858;2023-06-04T12:58:31;23.40;81.00
26990;DHT22;14537;47.788;11.858;2023-06-04T13:00:57;23.20;78.60
26990;DHT22;14537;47.788;11.858;2023-06-04T13:03:23;23.10;79.00
26990;DHT22;14537;47.788;11.858;2023-06-04T13:05:48;22.80;79.80
26990;DHT22;14537;47.788;11.858;2023-06-04T13:08:16;22.60;80.30
26990;DHT22;14537;47.788;11.858;2023-06-04T13:10:42;22.60;79.60
26990;DHT22;14537;47.788;11.858;2023-06-04T13:13:08;22.80;84.80
26990;DHT22;14537;47.788;11.858;2023-06-04T13:15:33;23.10;86.50
26990;DHT22;14537;47.788;11.858;2023-06-04T13:17:59;23.40;87.50
26990;DHT22;14537;47.788;11.858;2023-06-04T13:20:25;23.80;87.70
26990;DHT22;14537;47.788;11.858;2023-06-04T13:22:50;24.00;82.70
26990;DHT22;14537;47.788;11.858;2023-06-04T13:25:16;24.10;82.30
26990;DHT22;14537;47.788;11.858;2023-06-04T13:27:43;24.00;81.10
26990;DHT22;14537;47.788;11.858;2023-06-04T13:30:10;24.20;82.10
26990;DHT22;14537;47.788;11.858;2023-06-04T13:32:35;24.50;81.80
26990;DHT22;14537;47.788;11.858;2023-06-04T13:35:01;24.90;79.80
26990;DHT22;14537;47.788;11.858;2023-06-04T13:37:27;25.30;76.70
26990;DHT22;14537;47.788;11.858;2023-06-04T13:39:53;25.60;77.50
26990;DHT22;14537;47.788;11.858;2023-06-04T13:42:19;26.00;77.50
26990;DHT22;14537;47.788;11.858;2023-06-04T13:44:44;26.20;75.60
26990;DHT22;14537;47.788;11.858;2023-06-04T13:47:10;26.10;76.70
26990;DHT22;14537;47.788;11.858;2023-06-04T13:49:35;26.20;75.20
26990;DHT22;14537;47.788;11.858;2023-06-04T13:52:01;25.90;74.10
26990;DHT22;14537;47.788;11.858;2023-06-04T13:54:27;25.50;75.80
26990;DHT22;14537;47.788;11.858;2023-06-04T13:56:52;25.30;74.70
26990;DHT22;14537;47.788;11.858;2023-06-04T13:59:18;25.60;73.90
26990;DHT22;14537;47.788;11.858;2023-06-04T14:01:44;26.00;71.60
26990;DHT22;14537;47.788;11.858;2023-06-04T14:04:09;26.20;72.50
26990;DHT22;14537;47.788;11.858;2023-06-04T14:06:37;26.30;70.70
26990;DHT22;14537;47.788;11.858;2023-06-04T14:09:04;26.10;68.30
26990;DHT22;14537;47.788;11.858;2023-06-04T14:11:31;26.10;69.60
26990;DHT22;14537;47.788;11.858;2023-06-04T14:13:58;26.30;64.60
26990;DHT22;14537;47.788;11.858;2023-06-04T14:16:23;26.50;69.60
26990;DHT22;14537;47.788;11.858;2023-06-04T14:18:49;26.80;70.50
26990;DHT22;14537;47.788;11.858;2023-06-04T14:21:15;27.20;69.40
26990;DHT22;14537;47.788;11.858;2023-06-04T14:23:40;27.10;66.50
26990;DHT22;14537;47.788;11.858;2023-06-04T14:26:06;26.60;64.70
26990;DHT22;14537;47.788;11.858;2023-06-04T14:28:32;26.00;66.10
26990;DHT22;14537;47.788;11.858;2023-06-04T14:30:57;26.20;67.30
26990;DHT22;14537;47.788;11.858;2023-06-04T14:33:24;26.80;66.90
26990;DHT22;14537;47.788;11.858;2023-06-04T14:35:49;26.90;66.90
26990;DHT22;14537;47.788;11.858;2023-06-04T14:38:16;26.60;64.80
26990;DHT22;14537;47.788;11.858;2023-06-04T14:40:42;26.90;68.10
26990;DHT22;14537;47.788;11.858;2023-06-04T14:43:12;27.30;63.90
26990;DHT22;14537;47.788;11.858;2023-06-04T14:45:38;27.40;64.60
26990;DHT22;14537;47.788;11.858;2023-06-04T14:48:05;27.20;65.10
26990;DHT22;14537;47.788;11.858;2023-06-04T14:50:30;26.90;63.80
26990;DHT22;14537;47.788;11.858;2023-06-04T14:52:56;26.40;65.90
26990;DHT22;14537;47.788;11.858;2023-06-04T14:55:22;26.00;64.80
26990;DHT22;14537;47.788;11.858;2023-06-04T14:57:49;25.50;66.30
26990;DHT22;14537;47.788;11.858;2023-06-04T15:00:16;25.30;67.10
26990;DHT22;14537;47.788;11.858;2023-06-04T15:02:42;25.20;69.60
26990;DHT22;14537;47.788;11.858;2023-06-04T15:05:08;25.30;69.30
26990;DHT22;14537;47.788;11.858;2023-06-04T15:07:33;26.30;67.40
26990;DHT22;14537;47.788;11.858;2023-06-04T15:09:59;27.40;65.40
26990;DHT22;14537;47.788;11.858;2023-06-04T15:12:27;28.20;71.60
26990;DHT22;14537;47.788;11.858;2023-06-04T15:14:53;29.10;69.60
26990;DHT22;14537;47.788;11.858;2023-06-04T15:17:18;29.30;65.60